Time;durP1;ratioP1;P1;durP2;ratioP2;P2;SDS_P1;SDS_P2;PMS_P1;PMS_P2;Temp;Humidity;BMP_temperature;BMP_pressure;BME280_temperature;BME280_humidity;BME280_pressure;Samples;Min_cycle;Max_cycle;Signal;HPM_P1;HPM_P2
2023/07/20 00:03:09;;;;;;;;;;;;;;;23.95;40.73;95479.88;10451867;28;1837;-68
2023/07/20 00:08:09;;;;;;;;;;;;;;;23.96;40.74;95488.59;10449046;28;1933;-68
2023/07/20 00:13:13;;;;;;;;;;;;;;;23.83;41.01;95486.78;10437283;28;2220;-69
2023/07/20 00:18:13;;;;;;;;;;;;;;;23.90;40.62;95493.25;10456764;28;2008;-69
2023/07/20 00:23:14;;;;;;;;;;;;;;;23.99;40.63;95483.47;10449887;28;2074;-69
2023/07/20 00:28:14;;;;;;;;;;;;;;;24.05;40.80;95484.19;10437047;28;2340;-69
2023/07/20 00:33:16;;;;;;;;;;;;;;;24.11;40.75;95483.75;10447465;28;2046;-68
2023/07/20 00:38:18;;;;;;;;;;;;;;;24.06;40.66;95494.47;10450736;28;2305;-69
2023/07/20 00:43:19;;;;;;;;;;;;;;;24.07;40.61;95506.63;10449488;28;5032;-68
2023/07/20 00:48:19;;;;;;;;;;;;;;;23.96;40.87;95494.69;10446393;28;1935;-69
2023/07/20 00:53:20;;;;;;;;;;;;;;;24.00;40.55;95497.50;10447848;28;1923;-70
2023/07/20 00:58:20;;;;;;;;;;;;;;;24.08;40.69;95494.97;10447351;28;2056;-69
2023/07/20 01:03:20;;;;;;;;;;;;;;;24.01;40.63;95493.75;10444587;28;2017;-68
2023/07/20 01:08:21;;;;;;;;;;;;;;;24.04;40.56;95498.50;10446422;28;1954;-69
2023/07/20 01:13:21;;;;;;;;;;;;;;;23.93;40.76;95495.28;10444405;28;2033;-70
2023/07/20 01:18:21;;;;;;;;;;;;;;;23.99;40.78;95494.06;10460010;28;2004;-69
2023/07/20 01:23:40;;;;;;;;;;;;;;;23.94;40.96;95493.41;10449502;28;2163;-69
2023/07/20 01:29:00;;;;;;;;;;;;;;;23.94;41.04;95488.13;10417950;28;1972;-68
2023/07/20 01:34:00;;;;;;;;;;;;;;;23.95;40.93;95489.69;10447355;28;1983;-68
2023/07/20 01:39:02;;;;;;;;;;;;;;;23.71;41.07;95494.47;10446134;28;2011;-70
2023/07/20 01:44:03;;;;;;;;;;;;;;;23.77;40.78;95499.38;10443267;28;5150;-69
2023/07/20 01:49:03;;;;;;;;;;;;;;;23.75;40.90;95490.94;10445562;28;2050;-68
2023/07/20 01:54:04;;;;;;;;;;;;;;;23.69;40.75;95491.34;10446438;28;1889;-68
2023/07/20 01:59:04;;;;;;;;;;;;;;;23.66;40.94;95498.00;10438519;28;1987;-68
2023/07/20 02:04:04;;;;;;;;;;;;;;;23.40;41.13;95489.88;10441687;28;1846;-68
2023/07/20 02:09:04;;;;;;;;;;;;;;;23.54;40.94;95496.97;10442115;28;1958;-67
2023/07/20 02:14:05;;;;;;;;;;;;;;;23.51;40.75;95495.72;10450907;28;2031;-67
2023/07/20 02:19:06;;;;;;;;;;;;;;;23.53;41.08;95498.06;10445142;28;2375;-68
2023/07/20 02:24:07;;;;;;;;;;;;;;;23.43;41.28;95494.56;10449030;28;1757;-68
2023/07/20 02:29:08;;;;;;;;;;;;;;;23.36;41.73;95507.41;10448301;28;1901;-68
2023/07/20 02:34:08;;;;;;;;;;;;;;;23.40;41.86;95502.31;10443045;28;1980;-68
2023/07/20 02:39:09;;;;;;;;;;;;;;;23.28;41.84;95500.16;10444581;28;2030;-68
2023/07/20 02:44:09;;;;;;;;;;;;;;;23.12;41.79;95506.03;10448235;28;1974;-68
2023/07/20 02:49:09;;;;;;;;;;;;;;;23.33;41.56;95499.25;10443406;28;1999;-69
2023/07/20 02:54:09;;;;;;;;;;;;;;;23.07;41.76;95508.78;10452290;28;1993;-69
2023/07/20 02:59:10;;;;;;;;;;;;;;;23.09;41.68;95525.91;10438489;28;1964;-68
2023/07/20 03:04:10;;;;;;;;;;;;;;;23.02;41.60;95516.81;10448954;28;1842;-69
2023/07/20 03:09:10;;;;;;;;;;;;;;;23.17;41.37;95521.78;10450122;28;1868;-69
2023/07/20 03:14:11;;;;;;;;;;;;;;;23.22;40.90;95525.13;10453374;28;2047;-68
2023/07/20 03:19:11;;;;;;;;;;;;;;;22.99;41.13;95527.97;10451286;28;2303;-68
2023/07/20 03:24:11;;;;;;;;;;;;;;;22.82;41.23;95530.41;10452046;28;1833;-69
2023/07/20 03:29:12;;;;;;;;;;;;;;;22.73;41.19;95550.66;10445993;28;1836;-69
2023/07/20 03:34:12;;;;;;;;;;;;;;;22.85;41.21;95550.97;10445424;28;1905;-67
2023/07/20 03:39:12;;;;;;;;;;;;;;;23.18;41.12;95547.97;10454022;28;1953;-67
2023/07/20 03:44:12;;;;;;;;;;;;;;;23.35;41.39;95557.94;10443279;28;4950;-67
2023/07/20 03:49:13;;;;;;;;;;;;;;;23.50;42.06;95552.34;10447873;28;2003;-68
2023/07/20 03:54:13;;;;;;;;;;;;;;;23.64;42.28;95560.28;10449450;28;1845;-67
2023/07/20 03:59:14;;;;;;;;;;;;;;;23.73;42.56;95566.41;10453744;28;1910;-69
2023/07/20 04:04:15;;;;;;;;;;;;;;;23.79;43.29;95566.00;10452658;28;1778;-67
2023/07/20 04:09:15;;;;;;;;;;;;;;;23.87;43.11;95573.25;10459655;28;2048;-68
2023/07/20 04:14:16;;;;;;;;;;;;;;;23.92;42.91;95573.16;10452259;28;2357;-68
2023/07/20 04:19:17;;;;;;;;;;;;;;;23.93;43.25;95564.09;10449471;28;1957;-67
2023/07/20 04:24:18;;;;;;;;;;;;;;;23.96;42.96;95568.81;10447578;28;1830;-67
2023/07/20 04:29:18;;;;;;;;;;;;;;;23.97;43.19;95570.38;10442316;28;1873;-68
2023/07/20 04:34:18;;;;;;;;;;;;;;;24.00;43.19;95567.13;10447115;28;1900;-68
2023/07/20 04:39:19;;;;;;;;;;;;;;;24.00;43.06;95574.28;10452023;28;1921;-68
2023/07/20 04:44:19;;;;;;;;;;;;;;;24.02;43.18;95577.44;10461546;28;5072;-67
2023/07/20 04:49:19;;;;;;;;;;;;;;;24.04;43.09;95583.22;10448503;28;1901;-68
2023/07/20 04:54:19;;;;;;;;;;;;;;;24.05;43.00;95590.88;10448189;28;1925;-69
2023/07/20 04:59:20;;;;;;;;;;;;;;;24.08;42.73;95595.59;10449166;28;1960;-68
2023/07/20 05:04:20;;;;;;;;;;;;;;;24.08;42.95;95594.78;10452944;28;1893;-72
2023/07/20 05:09:20;;;;;;;;;;;;;;;24.13;42.90;95597.34;10450529;28;2311;-70
2023/07/20 05:14:20;;;;;;;;;;;;;;;24.14;42.96;95589.09;10461486;28;1822;-72
2023/07/20 05:19:21;;;;;;;;;;;;;;;24.18;43.02;95599.84;10453131;28;2075;-74
2023/07/20 05:24:21;;;;;;;;;;;;;;;24.19;42.89;95596.91;10451148;28;1894;-75
2023/07/20 05:29:21;;;;;;;;;;;;;;;24.22;42.74;95591.00;10451407;28;1886;-69
2023/07/20 05:34:22;;;;;;;;;;;;;;;24.23;42.59;95595.22;10450517;28;1993;-72
2023/07/20 05:39:22;;;;;;;;;;;;;;;24.27;42.72;95586.69;10450035;28;1921;-75
2023/07/20 05:44:22;;;;;;;;;;;;;;;24.30;42.61;95597.44;10447602;28;5225;-75
2023/07/20 05:49:22;;;;;;;;;;;;;;;24.35;42.53;95602.66;10450142;28;1877;-75
2023/07/20 05:54:26;;;;;;;;;;;;;;;24.39;42.38;95608.13;10450583;28;1881;-75
2023/07/20 05:59:29;;;;;;;;;;;;;;;24.41;42.28;95609.38;10446133;28;1930;-73
2023/07/20 06:04:29;;;;;;;;;;;;;;;24.45;42.62;95613.00;10451289;28;2344;-73
2023/07/20 06:09:30;;;;;;;;;;;;;;;24.45;42.40;95615.66;10450464;28;1894;-73
2023/07/20 06:14:30;;;;;;;;;;;;;;;24.48;42.28;95614.28;10450638;28;1901;-73
2023/07/20 06:19:31;;;;;;;;;;;;;;;24.51;41.93;95613.66;10448509;28;1975;-72
2023/07/20 06:24:31;;;;;;;;;;;;;;;24.51;41.86;95608.34;10443007;28;1945;-72
2023/07/20 06:29:31;;;;;;;;;;;;;;;24.51;41.68;95609.16;10446450;28;1877;-72
2023/07/20 06:34:36;;;;;;;;;;;;;;;24.52;41.55;95612.59;10450992;28;1968;-72
2023/07/20 06:39:36;;;;;;;;;;;;;;;24.53;41.51;95611.47;10447222;28;2083;-72
2023/07/20 06:44:37;;;;;;;;;;;;;;;24.55;41.53;95609.31;10445692;28;1822;-73
2023/07/20 06:49:37;;;;;;;;;;;;;;;24.55;41.43;95610.09;10444312;28;1829;-73
2023/07/20 06:54:37;;;;;;;;;;;;;;;24.57;41.62;95605.28;10447901;28;2051;-73
2023/07/20 06:59:37;;;;;;;;;;;;;;;24.58;41.52;95608.72;10441465;28;1913;-72
2023/07/20 07:04:38;;;;;;;;;;;;;;;24.59;41.16;95618.22;10442945;28;2663;-73
2023/07/20 07:09:38;;;;;;;;;;;;;;;24.61;41.47;95608.91;10450240;28;1952;-72
2023/07/20 07:14:38;;;;;;;;;;;;;;;24.61;41.49;95608.91;10446954;28;2058;-72
2023/07/20 07:19:40;;;;;;;;;;;;;;;24.63;41.59;95601.41;10445456;28;1906;-72
2023/07/20 07:24:41;;;;;;;;;;;;;;;24.66;41.36;95611.44;10444076;28;1901;-72
2023/07/20 07:29:44;;;;;;;;;;;;;;;24.68;41.43;95611.13;10442120;28;2051;-72
2023/07/20 07:34:46;;;;;;;;;;;;;;;24.68;41.45;95619.88;10446825;28;1960;-71
2023/07/20 07:39:46;;;;;;;;;;;;;;;24.69;41.44;95616.13;10462712;28;5100;-71
2023/07/20 07:44:46;;;;;;;;;;;;;;;24.72;41.57;95612.09;10450573;28;1886;-72
2023/07/20 07:49:47;;;;;;;;;;;;;;;24.71;41.49;95619.25;10447876;28;1981;-72
2023/07/20 07:54:47;;;;;;;;;;;;;;;24.72;41.27;95609.44;10453629;28;1897;-72
2023/07/20 07:59:47;;;;;;;;;;;;;;;24.76;41.40;95615.72;10452540;28;2263;-72
2023/07/20 08:04:47;;;;;;;;;;;;;;;24.75;40.73;95612.28;10454382;28;1802;-72
2023/07/20 08:09:48;;;;;;;;;;;;;;;24.74;40.89;95610.72;10452055;28;1998;-72
2023/07/20 08:14:48;;;;;;;;;;;;;;;24.76;41.05;95613.06;10450583;28;2041;-72
2023/07/20 08:19:48;;;;;;;;;;;;;;;24.78;40.98;95624.16;10452379;28;2013;-72
2023/07/20 08:24:49;;;;;;;;;;;;;;;24.78;41.02;95622.28;10455558;28;1853;-72
2023/07/20 08:29:49;;;;;;;;;;;;;;;24.79;40.97;95615.13;10450138;28;1904;-72
2023/07/20 08:34:49;;;;;;;;;;;;;;;24.81;40.90;95623.56;10448560;28;1876;-72
2023/07/20 08:39:50;;;;;;;;;;;;;;;24.82;40.84;95619.81;10450037;28;5013;-72
2023/07/20 08:44:50;;;;;;;;;;;;;;;24.82;40.89;95617.94;10436594;28;1953;-71
2023/07/20 08:49:50;;;;;;;;;;;;;;;24.84;40.90;95622.94;10449659;28;1872;-71
2023/07/20 08:54:50;;;;;;;;;;;;;;;24.83;40.53;95618.75;10448728;28;2073;-71
2023/07/20 08:59:51;;;;;;;;;;;;;;;24.83;40.83;95619.50;10430853;28;2001;-72
2023/07/20 09:04:51;;;;;;;;;;;;;;;24.85;40.60;95619.22;10429302;28;2080;-71
2023/07/20 09:09:51;;;;;;;;;;;;;;;24.85;40.86;95604.06;10461945;28;1876;-72
2023/07/20 09:14:52;;;;;;;;;;;;;;;24.88;40.65;95613.28;10451524;28;1889;-73
2023/07/20 09:19:52;;;;;;;;;;;;;;;24.90;40.96;95600.50;10455711;28;1918;-71
2023/07/20 09:24:52;;;;;;;;;;;;;;;24.90;40.96;95600.50;10450760;28;1865;-72
2023/07/20 09:29:53;;;;;;;;;;;;;;;24.91;40.58;95599.44;10448978;28;1889;-71
2023/07/20 09:34:53;;;;;;;;;;;;;;;24.92;40.59;95606.28;10447581;28;1818;-72
2023/07/20 09:39:53;;;;;;;;;;;;;;;24.93;40.69;95602.56;10444589;28;5044;-72
2023/07/20 09:44:54;;;;;;;;;;;;;;;24.94;40.81;95601.47;10445237;28;1881;-72
2023/07/20 09:50:00;;;;;;;;;;;;;;;24.95;40.47;95601.19;10451324;28;2235;-72
2023/07/20 09:55:00;;;;;;;;;;;;;;;24.96;40.81;95596.63;10445230;28;1819;-72
2023/07/20 10:00:01;;;;;;;;;;;;;;;24.94;40.35;95591.66;10459099;28;1902;-72
2023/07/20 10:05:02;;;;;;;;;;;;;;;24.93;39.93;95595.41;10452099;28;1861;-72
2023/07/20 10:10:03;;;;;;;;;;;;;;;24.95;40.29;95598.53;10452164;28;1941;-72
2023/07/20 10:15:08;;;;;;;;;;;;;;;24.95;40.32;95598.53;10445078;28;1917;-72
2023/07/20 10:20:09;;;;;;;;;;;;;;;24.94;40.09;95593.50;10429415;28;2123;-72
2023/07/20 10:25:09;;;;;;;;;;;;;;;24.95;40.38;95593.22;10446661;28;1877;-72
2023/07/20 10:30:09;;;;;;;;;;;;;;;24.97;40.17;95591.06;10425929;28;1995;-72
2023/07/20 10:35:13;;;;;;;;;;;;;;;24.96;39.95;95594.78;10447544;28;2094;-72
2023/07/20 10:40:26;;;;;;;;;;;;;;;24.97;40.04;95577.78;10443461;28;5037;-72
2023/07/20 10:45:33;;;;;;;;;;;;;;;24.98;40.25;95576.69;10444140;28;2241;-72
2023/07/20 10:50:34;;;;;;;;;;;;;;;25.00;40.20;95565.78;10444081;28;1892;-72
2023/07/20 10:55:34;;;;;;;;;;;;;;;25.00;39.99;95571.06;10451365;28;1873;-72
2023/07/20 11:00:34;;;;;;;;;;;;;;;25.01;40.39;95572.66;10449313;28;2059;-72
2023/07/20 11:05:35;;;;;;;;;;;;;;;25.01;39.93;95567.34;10442598;28;1924;-71
2023/07/20 11:10:36;;;;;;;;;;;;;;;25.01;40.36;95564.69;10426787;28;2002;-72
2023/07/20 11:15:44;;;;;;;;;;;;;;;25.02;39.90;95550.34;10443941;28;1837;-72
2023/07/20 11:20:44;;;;;;;;;;;;;;;25.01;39.83;95549.56;10454600;28;1961;-72
2023/07/20 11:25:44;;;;;;;;;;;;;;;25.02;39.90;95547.69;10450570;28;1870;-72
2023/07/20 11:30:45;;;;;;;;;;;;;;;25.03;39.79;95546.59;10459261;28;2031;-72
2023/07/20 11:35:46;;;;;;;;;;;;;;;25.03;39.68;95541.31;10453125;28;1965;-72
2023/07/20 11:40:46;;;;;;;;;;;;;;;25.03;39.71;95546.59;10463153;28;5070;-72
2023/07/20 11:45:47;;;;;;;;;;;;;;;25.05;39.67;95533.81;10449594;28;2420;-74
2023/07/20 11:50:47;;;;;;;;;;;;;;;25.03;40.03;95531.50;10452094;28;2063;-72
2023/07/20 11:55:47;;;;;;;;;;;;;;;25.06;39.81;95527.41;10447036;28;1905;-72
2023/07/20 12:00:47;;;;;;;;;;;;;;;25.08;40.02;95525.25;10447489;28;1906;-72
2023/07/20 12:05:50;;;;;;;;;;;;;;;25.09;40.09;95518.84;10448802;28;1881;-72
2023/07/20 12:10:50;;;;;;;;;;;;;;;25.11;40.27;95499.97;10437943;28;1871;-72
2023/07/20 12:15:52;;;;;;;;;;;;;;;25.11;40.02;95510.59;10454295;28;1872;-72
2023/07/20 12:20:58;;;;;;;;;;;;;;;25.11;40.13;95500.75;10446652;28;1910;-72
2023/07/20 12:25:58;;;;;;;;;;;;;;;25.13;40.12;95505.75;10446949;28;1874;-72
2023/07/20 12:30:58;;;;;;;;;;;;;;;25.11;40.03;95487.50;10459233;28;1862;-72
2023/07/20 12:35:59;;;;;;;;;;;;;;;25.12;39.97;95485.66;10449545;28;1861;-73
2023/07/20 12:41:00;;;;;;;;;;;;;;;25.13;39.95;95481.88;10456997;28;1971;-72
2023/07/20 12:46:00;;;;;;;;;;;;;;;25.13;39.79;95476.59;10448600;28;1945;-73
2023/07/20 12:51:01;;;;;;;;;;;;;;;25.14;39.97;95473.63;10434587;28;1804;-74
2023/07/20 12:56:01;;;;;;;;;;;;;;;25.14;39.89;95468.34;10450917;28;1889;-72
2023/07/20 13:01:01;;;;;;;;;;;;;;;25.15;39.82;95456.63;10456903;28;1914;-72
2023/07/20 13:06:01;;;;;;;;;;;;;;;25.14;39.79;95455.06;10449215;28;1897;-72
2023/07/20 13:11:02;;;;;;;;;;;;;;;25.16;40.03;95458.19;10450981;28;1901;-72
2023/07/20 13:16:03;;;;;;;;;;;;;;;25.17;39.51;95451.00;10451275;28;1959;-73
2023/07/20 13:21:03;;;;;;;;;;;;;;;25.16;39.31;95444.94;10447972;28;2009;-73
2023/07/20 13:26:04;;;;;;;;;;;;;;;25.16;39.54;95446.78;10441585;28;1943;-73
2023/07/20 13:31:04;;;;;;;;;;;;;;;25.16;39.41;95444.16;10455317;28;1877;-73
2023/07/20 13:36:05;;;;;;;;;;;;;;;25.15;39.30;95435.41;10447854;28;2566;-73
2023/07/20 13:41:05;;;;;;;;;;;;;;;25.17;39.56;95432.44;10452237;28;1926;-73
2023/07/20 13:46:06;;;;;;;;;;;;;;;25.17;39.26;95429.78;10447984;28;1890;-73
2023/07/20 13:51:06;;;;;;;;;;;;;;;25.18;39.43;95421.53;10451763;28;1922;-73
2023/07/20 13:56:06;;;;;;;;;;;;;;;25.18;39.32;95418.09;10446571;28;1860;-73
2023/07/20 14:01:06;;;;;;;;;;;;;;;25.18;39.46;95402.19;10445476;28;2055;-74
2023/07/20 14:06:07;;;;;;;;;;;;;;;25.19;39.50;95407.16;10449901;28;1994;-74
2023/07/20 14:11:07;;;;;;;;;;;;;;;25.22;39.73;95395.94;10445852;28;2003;-74
2023/07/20 14:16:08;;;;;;;;;;;;;;;25.23;39.65;95394.84;10453150;28;1989;-74
2023/07/20 14:21:08;;;;;;;;;;;;;;;25.25;39.79;95394.53;10443444;28;1906;-74
2023/07/20 14:26:08;;;;;;;;;;;;;;;25.25;39.71;95390.00;10444411;28;1897;-74
2023/07/20 14:31:09;;;;;;;;;;;;;;;25.25;39.46;95390.00;10452280;28;2217;-74
2023/07/20 14:36:09;;;;;;;;;;;;;;;25.24;39.20;95377.84;10445605;28;1996;-73
2023/07/20 14:41:09;;;;;;;;;;;;;;;25.23;39.36;95378.91;10446098;28;5040;-74
2023/07/20 14:46:10;;;;;;;;;;;;;;;25.24;39.29;95382.38;10436936;28;1902;-74
2023/07/20 14:51:10;;;;;;;;;;;;;;;25.25;39.18;95374.09;10447099;28;1913;-74
2023/07/20 14:56:10;;;;;;;;;;;;;;;25.24;39.32;95364.56;10450959;28;1807;-74
2023/07/20 15:01:11;;;;;;;;;;;;;;;25.25;39.18;95357.38;10443018;28;1914;-71
2023/07/20 15:06:11;;;;;;;;;;;;;;;25.26;39.42;95365.03;10452953;28;2056;-73
2023/07/20 15:11:11;;;;;;;;;;;;;;;25.26;39.43;95359.75;10453803;28;1868;-72
2023/07/20 15:16:12;;;;;;;;;;;;;;;25.28;39.55;95356.78;10449127;28;1917;-71
2023/07/20 15:21:12;;;;;;;;;;;;;;;25.30;39.58;95343.97;10452581;28;1967;-72
2023/07/20 15:26:13;;;;;;;;;;;;;;;25.32;39.81;95355.06;10449791;28;1874;-74
2023/07/20 15:31:13;;;;;;;;;;;;;;;25.32;39.84;95342.56;10440824;28;2022;-72
2023/07/20 15:36:13;;;;;;;;;;;;;;;25.32;39.72;95342.56;10449196;28;1873;-72
2023/07/20 15:41:14;;;;;;;;;;;;;;;25.33;39.25;95338.03;10449415;28;5068;-71
2023/07/20 15:46:20;;;;;;;;;;;;;;;25.31;39.23;95335.69;10447300;28;1943;-73
2023/07/20 15:51:21;;;;;;;;;;;;;;;25.31;39.37;95335.69;10447529;28;1937;-73
2023/07/20 15:56:21;;;;;;;;;;;;;;;25.33;39.56;95333.50;10446352;28;1864;-75
2023/07/20 16:01:21;;;;;;;;;;;;;;;25.33;39.56;95327.41;10446737;28;2038;-75
2023/07/20 16:06:21;;;;;;;;;;;;;;;25.34;39.45;95323.69;10454266;28;1769;-75
2023/07/20 16:11:23;;;;;;;;;;;;;;;25.33;39.40;95322.88;10441719;28;1913;-74
2023/07/20 16:16:23;;;;;;;;;;;;;;;25.35;39.77;95314.63;10434913;28;1996;-76
2023/07/20 16:21:23;;;;;;;;;;;;;;;25.36;39.58;95310.88;10445788;28;1909;-76
2023/07/20 16:26:24;;;;;;;;;;;;;;;25.35;39.54;95307.44;10442941;28;2329;-75
2023/07/20 16:31:24;;;;;;;;;;;;;;;25.35;39.42;95304.78;10449267;28;1846;-75
2023/07/20 16:36:24;;;;;;;;;;;;;;;25.35;39.45;95302.13;10426637;28;1973;-77
2023/07/20 16:41:25;;;;;;;;;;;;;;;25.35;39.39;95298.72;10444697;28;5024;-76
2023/07/20 16:46:25;;;;;;;;;;;;;;;25.35;39.12;95299.47;10443248;28;1893;-76
2023/07/20 16:51:26;;;;;;;;;;;;;;;25.33;38.85;95295.56;10446022;28;1950;-76
2023/07/20 16:56:26;;;;;;;;;;;;;;;25.32;38.68;95296.69;10446083;28;1996;-76
2023/07/20 17:01:26;;;;;;;;;;;;;;;25.30;38.67;95296.22;10453608;28;1982;-76
2023/07/20 17:06:27;;;;;;;;;;;;;;;25.32;38.59;95288.72;10448221;28;1921;-73
2023/07/20 17:11:27;;;;;;;;;;;;;;;25.32;38.81;95278.13;10447559;28;2134;-74
2023/07/20 17:16:27;;;;;;;;;;;;;;;25.32;38.91;95289.50;10441888;28;2235;-74
2023/07/20 17:21:27;;;;;;;;;;;;;;;25.31;38.62;95293.25;10431449;28;2313;-73
2023/07/20 17:26:28;;;;;;;;;;;;;;;25.32;38.62;95291.38;10445005;28;1861;-71
2023/07/20 17:31:28;;;;;;;;;;;;;;;25.32;38.49;95294.03;10445344;28;2177;-73
2023/07/20 17:36:34;;;;;;;;;;;;;;;25.31;38.60;95290.59;10503912;27;2852;-73
2023/07/20 17:41:34;;;;;;;;;;;;;;;25.31;38.29;95303.84;10479158;28;5012;-75
2023/07/20 17:46:35;;;;;;;;;;;;;;;25.27;37.89;95291.53;10478310;28;1985;-74
2023/07/20 17:51:35;;;;;;;;;;;;;;;25.26;37.62;95290.78;10474038;28;1958;-75
2023/07/20 17:56:36;;;;;;;;;;;;;;;25.24;37.51;95295.59;10474733;28;2117;-74
2023/07/20 18:01:36;;;;;;;;;;;;;;;25.24;37.69;95292.97;10479312;28;1898;-73
2023/07/20 18:06:36;;;;;;;;;;;;;;;25.21;37.28;95293.56;10473612;28;2011;-73
2023/07/20 18:11:36;;;;;;;;;;;;;;;25.19;36.85;95287.81;10470802;28;2011;-75
2023/07/20 18:16:37;;;;;;;;;;;;;;;25.17;36.84;95289.97;10470883;28;2327;-74
2023/07/20 18:21:37;;;;;;;;;;;;;;;25.17;36.65;95291.84;10470066;28;2131;-72
2023/07/20 18:26:37;;;;;;;;;;;;;;;25.15;36.63;95296.69;10476390;28;1978;-72
2023/07/20 18:31:39;;;;;;;;;;;;;;;25.14;36.41;95289.84;10477869;28;2161;-71
2023/07/20 18:36:39;;;;;;;;;;;;;;;25.12;36.57;95292.81;10470904;28;1971;-72
2023/07/20 18:41:39;;;;;;;;;;;;;;;25.12;36.27;95292.81;10503950;28;5047;-74
2023/07/20 18:46:39;;;;;;;;;;;;;;;25.11;36.36;95288.59;10487725;28;1888;-73
2023/07/20 18:51:40;;;;;;;;;;;;;;;25.11;36.06;95288.59;10476407;28;2056;-75
2023/07/20 18:56:40;;;;;;;;;;;;;;;25.12;36.02;95292.03;10442087;28;1981;-72
2023/07/20 19:01:40;;;;;;;;;;;;;;;25.12;36.20;95289.38;10448818;28;1897;-71
2023/07/20 19:06:41;;;;;;;;;;;;;;;25.11;35.80;95296.53;10440321;28;1906;-72
2023/07/20 19:11:41;;;;;;;;;;;;;;;25.11;35.82;95299.19;10451206;28;2295;-73
2023/07/20 19:16:41;;;;;;;;;;;;;;;25.12;35.90;95305.28;10444829;28;2108;-74
2023/07/20 19:21:41;;;;;;;;;;;;;;;25.11;35.69;95311.66;10445214;28;1894;-74
2023/07/20 19:26:42;;;;;;;;;;;;;;;25.11;35.60;95314.31;10444854;28;1886;-73
2023/07/20 19:31:42;;;;;;;;;;;;;;;25.10;35.74;95324.16;10453610;28;1976;-74
2023/07/20 19:36:42;;;;;;;;;;;;;;;25.11;35.88;95322.28;10448971;28;1880;-75
2023/07/20 19:41:42;;;;;;;;;;;;;;;25.11;35.81;95330.22;10453103;28;1889;-74
2023/07/20 19:46:43;;;;;;;;;;;;;;;25.12;35.98;95335.25;10444434;28;1897;-75
2023/07/20 19:51:43;;;;;;;;;;;;;;;25.12;36.06;95332.59;10443475;28;2098;-73
2023/07/20 19:56:43;;;;;;;;;;;;;;;25.14;36.12;95346.31;10448596;28;2041;-73
2023/07/20 20:01:44;;;;;;;;;;;;;;;25.15;35.95;95345.22;10448293;28;1870;-73
2023/07/20 20:06:44;;;;;;;;;;;;;;;25.16;36.04;95340.69;10447460;28;1897;-73
2023/07/20 20:11:45;;;;;;;;;;;;;;;25.17;36.25;95342.25;10453656;28;2249;-73
2023/07/20 20:16:45;;;;;;;;;;;;;;;25.17;35.96;95348.34;10446348;28;1902;-73
2023/07/20 20:21:45;;;;;;;;;;;;;;;25.16;36.26;95346.00;10442765;28;1913;-75
2023/07/20 20:26:46;;;;;;;;;;;;;;;25.18;36.05;95343.81;10447681;28;1865;-75
2023/07/20 20:31:46;;;;;;;;;;;;;;;25.19;36.09;95337.41;10446995;28;2019;-74
2023/07/20 20:36:47;;;;;;;;;;;;;;;25.19;36.23;95338.19;10446640;28;1897;-72
2023/07/20 20:41:47;;;;;;;;;;;;;;;25.18;36.29;95341.97;10445217;28;5118;-73
2023/07/20 20:46:50;;;;;;;;;;;;;;;25.21;36.30;95337.88;10448240;28;1830;-72
2023/07/20 20:51:50;;;;;;;;;;;;;;;25.19;36.32;95327.59;10441505;28;1989;-72
2023/07/20 20:56:51;;;;;;;;;;;;;;;25.20;36.30;95338.97;10443998;28;1902;-72
2023/07/20 21:01:51;;;;;;;;;;;;;;;25.20;36.44;95328.38;10442224;28;1898;-72
2023/07/20 21:06:51;;;;;;;;;;;;;;;25.21;36.05;95330.72;10442976;28;2285;-72
2023/07/20 21:11:52;;;;;;;;;;;;;;;25.21;36.27;95325.41;10444569;28;1910;-73
2023/07/20 21:16:52;;;;;;;;;;;;;;;25.21;36.38;95320.09;10445770;28;2000;-73
2023/07/20 21:21:52;;;;;;;;;;;;;;;25.21;36.44;95314.78;10444304;28;1847;-72
2023/07/20 21:26:53;;;;;;;;;;;;;;;25.23;36.41;95320.56;10448580;28;2082;-74
2023/07/20 21:31:53;;;;;;;;;;;;;;;25.22;36.17;95319.03;10445784;28;2137;-73
2023/07/20 21:36:53;;;;;;;;;;;;;;;25.23;36.20;95311.81;10446779;28;2235;-72
2023/07/20 21:41:54;;;;;;;;;;;;;;;25.23;36.35;95317.91;10434927;28;4973;-72
2023/07/20 21:46:54;;;;;;;;;;;;;;;25.21;36.54;95317.44;10441145;28;1885;-75
2023/07/20 21:51:54;;;;;;;;;;;;;;;25.12;36.06;95316.69;10432410;28;2106;-74
2023/07/20 21:56:55;;;;;;;;;;;;;;;25.00;35.30;95324.47;10442051;28;1900;-71
2023/07/20 22:01:55;;;;;;;;;;;;;;;24.90;35.28;95311.50;10453291;28;2466;-70
2023/07/20 22:06:55;;;;;;;;;;;;;;;24.80;35.07;95311.81;10439457;28;1873;-70
2023/07/20 22:11:56;;;;;;;;;;;;;;;24.69;34.88;95315.84;10439909;28;1993;-76
2023/07/20 22:16:56;;;;;;;;;;;;;;;24.60;34.61;95313.19;10434020;28;1898;-71
2023/07/20 22:21:57;;;;;;;;;;;;;;;24.47;34.67;95319.38;10445620;28;1985;-70
2023/07/20 22:26:57;;;;;;;;;;;;;;;24.48;34.89;95313.00;10446555;28;1850;-72
2023/07/20 22:31:58;;;;;;;;;;;;;;;24.49;34.99;95308.47;10447840;28;1921;-70
2023/07/20 22:36:58;;;;;;;;;;;;;;;24.46;35.00;95312.50;10446866;28;1913;-69
2023/07/20 22:42:02;;;;;;;;;;;;;;;24.46;35.09;95306.44;10478218;28;5032;-72
2023/07/20 22:47:03;;;;;;;;;;;;;;;24.47;35.62;95305.34;10473471;28;1829;-76
2023/07/20 22:52:03;;;;;;;;;;;;;;;24.45;35.89;95303.00;10447396;28;1978;-76
2023/07/20 22:57:05;;;;;;;;;;;;;;;24.46;35.81;95301.16;10450054;28;1924;-75
2023/07/20 23:02:06;;;;;;;;;;;;;;;24.46;36.17;95303.78;10442740;28;1971;-75
2023/07/20 23:07:06;;;;;;;;;;;;;;;24.45;35.77;95310.16;10448072;28;1803;-75
2023/07/20 23:12:06;;;;;;;;;;;;;;;24.42;36.10;95297.56;10443920;28;1963;-75
2023/07/20 23:17:11;;;;;;;;;;;;;;;24.24;35.63;95297.50;10443974;28;1935;-75
2023/07/20 23:22:12;;;;;;;;;;;;;;;24.27;35.77;95282.06;10448392;28;1842;-75
2023/07/20 23:27:13;;;;;;;;;;;;;;;24.31;35.89;95269.78;10447575;28;1880;-75
2023/07/20 23:32:15;;;;;;;;;;;;;;;24.32;35.82;95274.00;10450382;28;1914;-76
2023/07/20 23:37:15;;;;;;;;;;;;;;;24.30;35.90;95260.28;10444093;28;2049;-74
2023/07/20 23:42:16;;;;;;;;;;;;;;;24.29;35.93;95254.19;10448528;28;5066;-74
2023/07/20 23:47:16;;;;;;;;;;;;;;;24.25;35.71;95240.78;10442943;28;1836;-73
2023/07/20 23:52:18;;;;;;;;;;;;;;;24.23;35.56;95245.59;10445324;28;1971;-74
2023/07/20 23:57:18;;;;;;;;;;;;;;;24.20;35.73;95235.63;10443344;28;1833;-75
